sensor_id;sensor_type;location;lat;lon;timestamp;pressure;altitude;pressure_sealevel;temperature;humidity
69751;BME280;57335;52.288;6.056;2023-06-26T00:00:40;101188.44;;;21.05;80.52
69751;BME280;57335;52.288;6.056;2023-06-26T00:03:07;101193.50;;;21.06;80.78
69751;BME280;57335;52.288;6.056;2023-06-26T00:05:33;101189.50;;;20.99;80.85
69751;BME280;57335;52.288;6.056;2023-06-26T00:08:00;101179.38;;;20.96;81.33
69751;BME280;57335;52.288;6.056;2023-06-26T00:10:27;101193.78;;;21.00;82.18
69751;BME280;57335;52.288;6.056;2023-06-26T00:12:54;101185.75;;;20.95;82.78
69751;BME280;57335;52.288;6.056;2023-06-26T00:15:20;101176.47;;;20.87;84.25
69751;BME280;57335;52.288;6.056;2023-06-26T00:17:47;101177.78;;;20.84;83.88
69751;BME280;57335;52.288;6.056;2023-06-26T00:20:13;101171.94;;;20.77;84.77
69751;BME280;57335;52.288;6.056;2023-06-26T00:22:39;101156.47;;;20.69;84.08
69751;BME280;57335;52.288;6.056;2023-06-26T00:25:06;101159.66;;;20.66;83.55
69751;BME280;57335;52.288;6.056;2023-06-26T00:27:33;101170.59;;;20.69;83.51
69751;BME280;57335;52.288;6.056;2023-06-26T00:29:59;101159.16;;;20.69;83.57
69751;BME280;57335;52.288;6.056;2023-06-26T00:32:26;101157.00;;;20.66;84.06
69751;BME280;57335;52.288;6.056;2023-06-26T00:34:52;101152.22;;;20.68;83.67
69751;BME280;57335;52.288;6.056;2023-06-26T00:37:18;101143.97;;;20.59;84.46
69751;BME280;57335;52.288;6.056;2023-06-26T00:39:45;101142.09;;;20.60;83.83
69751;BME280;57335;52.288;6.056;2023-06-26T00:42:11;101147.94;;;20.62;83.23
69751;BME280;57335;52.288;6.056;2023-06-26T00:44:37;101144.75;;;20.60;82.90
69751;BME280;57335;52.288;6.056;2023-06-26T00:47:04;101144.22;;;20.63;83.03
69751;BME280;57335;52.288;6.056;2023-06-26T00:49:31;101133.00;;;20.56;83.01
69751;BME280;57335;52.288;6.056;2023-06-26T00:51:57;101138.63;;;20.59;82.79
69751;BME280;57335;52.288;6.056;2023-06-26T00:54:24;101140.50;;;20.59;82.97
69751;BME280;57335;52.288;6.056;2023-06-26T00:56:50;101136.19;;;20.58;83.36
69751;BME280;57335;52.288;6.056;2023-06-26T00:59:17;101129.81;;;20.53;83.68
69751;BME280;57335;52.288;6.056;2023-06-26T01:01:43;101140.47;;;20.53;83.86
69751;BME280;57335;52.288;6.056;2023-06-26T01:04:10;101126.59;;;20.46;83.76
69751;BME280;57335;52.288;6.056;2023-06-26T01:06:36;101126.59;;;20.41;83.25
69751;BME280;57335;52.288;6.056;2023-06-26T01:09:03;101121.00;;;20.38;83.19
69751;BME280;57335;52.288;6.056;2023-06-26T01:11:30;101125.78;;;20.36;83.54
69751;BME280;57335;52.288;6.056;2023-06-26T01:13:57;101134.56;;;20.36;83.74
69751;BME280;57335;52.288;6.056;2023-06-26T01:16:27;101129.78;;;20.28;84.13
69751;BME280;57335;52.288;6.056;2023-06-26T01:18:55;101142.53;;;20.26;84.94
69751;BME280;57335;52.288;6.056;2023-06-26T01:21:22;101133.22;;;20.18;84.71
69751;BME280;57335;52.288;6.056;2023-06-26T01:24:00;101134.00;;;20.13;85.05
69751;BME280;57335;52.288;6.056;2023-06-26T01:26:29;101133.19;;;20.08;85.63
69751;BME280;57335;52.288;6.056;2023-06-26T01:28:58;101128.13;;;20.06;85.51
69751;BME280;57335;52.288;6.056;2023-06-26T01:31:26;101129.19;;;20.05;85.89
69751;BME280;57335;52.288;6.056;2023-06-26T01:33:54;101128.66;;;20.08;86.07
69751;BME280;57335;52.288;6.056;2023-06-26T01:36:20;101116.69;;;20.01;86.53
69751;BME280;57335;52.288;6.056;2023-06-26T01:38:47;101124.38;;;20.02;86.79
69751;BME280;57335;52.288;6.056;2023-06-26T01:41:14;101123.31;;;19.98;87.27
69751;BME280;57335;52.288;6.056;2023-06-26T01:44:05;101110.03;;;19.93;87.45
69751;BME280;57335;52.288;6.056;2023-06-26T01:46:40;101108.41;;;19.92;87.54
69751;BME280;57335;52.288;6.056;2023-06-26T01:49:37;101106.00;;;19.90;87.33
69751;BME280;57335;52.288;6.056;2023-06-26T01:52:09;101123.31;;;19.93;87.10
69751;BME280;57335;52.288;6.056;2023-06-26T01:54:44;101132.34;;;19.92;87.36
69751;BME280;57335;52.288;6.056;2023-06-26T01:57:13;101128.31;;;19.84;86.76
69751;BME280;57335;52.288;6.056;2023-06-26T01:59:40;101129.16;;;19.85;87.03
69751;BME280;57335;52.288;6.056;2023-06-26T02:02:07;101133.09;;;19.77;87.72
69751;BME280;57335;52.288;6.056;2023-06-26T02:04:34;101132.28;;;19.71;87.27
69751;BME280;57335;52.288;6.056;2023-06-26T02:07:00;101127.97;;;19.65;87.15
69751;BME280;57335;52.288;6.056;2023-06-26T02:09:26;101149.78;;;19.67;86.78
69751;BME280;57335;52.288;6.056;2023-06-26T02:11:53;101137.78;;;19.60;87.14
69751;BME280;57335;52.288;6.056;2023-06-26T02:14:19;101148.41;;;19.60;87.64
69751;BME280;57335;52.288;6.056;2023-06-26T02:16:46;101150.25;;;19.54;88.15
69751;BME280;57335;52.288;6.056;2023-06-26T02:19:12;101156.38;;;19.55;88.40
69751;BME280;57335;52.288;6.056;2023-06-26T02:21:38;101153.94;;;19.48;89.63
69751;BME280;57335;52.288;6.056;2023-06-26T02:24:05;101148.31;;;19.44;89.37
69751;BME280;57335;52.288;6.056;2023-06-26T02:26:31;101154.47;;;19.50;89.60
69751;BME280;57335;52.288;6.056;2023-06-26T02:28:58;101149.97;;;19.50;89.72
69751;BME280;57335;52.288;6.056;2023-06-26T02:31:24;101139.84;;;19.47;89.68
69751;BME280;57335;52.288;6.056;2023-06-26T02:33:51;101162.50;;;19.60;88.82
69751;BME280;57335;52.288;6.056;2023-06-26T02:36:17;101150.28;;;19.64;88.76
69751;BME280;57335;52.288;6.056;2023-06-26T02:38:43;101142.84;;;19.66;88.70
69751;BME280;57335;52.288;6.056;2023-06-26T02:41:10;101147.19;;;19.72;87.70
69751;BME280;57335;52.288;6.056;2023-06-26T02:43:36;101148.78;;;19.73;87.55
69751;BME280;57335;52.288;6.056;2023-06-26T02:46:02;101148.28;;;19.77;87.74
69751;BME280;57335;52.288;6.056;2023-06-26T02:48:29;101141.63;;;19.79;86.93
69751;BME280;57335;52.288;6.056;2023-06-26T02:50:55;101147.47;;;19.86;86.77
69751;BME280;57335;52.288;6.056;2023-06-26T02:53:22;101153.38;;;19.93;86.54
69751;BME280;57335;52.288;6.056;2023-06-26T02:55:48;101151.25;;;19.96;86.22
69751;BME280;57335;52.288;6.056;2023-06-26T02:58:14;101153.13;;;19.95;86.08
69751;BME280;57335;52.288;6.056;2023-06-26T03:00:41;101150.19;;;19.97;86.03
69751;BME280;57335;52.288;6.056;2023-06-26T03:03:07;101163.75;;;20.00;85.97
69751;BME280;57335;52.288;6.056;2023-06-26T03:05:34;101172.81;;;19.99;86.37
69751;BME280;57335;52.288;6.056;2023-06-26T03:08:02;101172.03;;;19.99;86.12
69751;BME280;57335;52.288;6.056;2023-06-26T03:10:28;101173.88;;;19.98;86.04
69751;BME280;57335;52.288;6.056;2023-06-26T03:12:55;101169.34;;;19.93;86.42
69751;BME280;57335;52.288;6.056;2023-06-26T03:15:21;101181.84;;;19.98;88.65
69751;BME280;57335;52.288;6.056;2023-06-26T03:17:47;101184.25;;;20.00;86.78
69751;BME280;57335;52.288;6.056;2023-06-26T03:20:14;101181.84;;;19.98;86.75
69751;BME280;57335;52.288;6.056;2023-06-26T03:22:40;101183.47;;;19.99;86.39
69751;BME280;57335;52.288;6.056;2023-06-26T03:25:07;101177.59;;;19.97;86.50
69751;BME280;57335;52.288;6.056;2023-06-26T03:27:33;101183.47;;;19.99;86.82
69751;BME280;57335;52.288;6.056;2023-06-26T03:30:00;101187.72;;;20.00;86.69
69751;BME280;57335;52.288;6.056;2023-06-26T03:32:26;101189.31;;;20.01;86.34
69751;BME280;57335;52.288;6.056;2023-06-26T03:34:53;101185.31;;;19.99;86.60
69751;BME280;57335;52.288;6.056;2023-06-26T03:37:19;101199.72;;;20.03;86.21
69751;BME280;57335;52.288;6.056;2023-06-26T03:39:46;101190.91;;;19.97;86.29
69751;BME280;57335;52.288;6.056;2023-06-26T03:42:12;101172.28;;;19.97;86.97
69751;BME280;57335;52.288;6.056;2023-06-26T03:44:38;101176.28;;;19.95;86.82
69751;BME280;57335;52.288;6.056;2023-06-26T03:47:05;101186.38;;;19.98;86.24
69751;BME280;57335;52.288;6.056;2023-06-26T03:49:31;101179.22;;;20.03;86.20
69751;BME280;57335;52.288;6.056;2023-06-26T03:51:58;101180.53;;;20.01;85.93
69751;BME280;57335;52.288;6.056;2023-06-26T03:54:24;101192.53;;;20.08;85.69
69751;BME280;57335;52.288;6.056;2023-06-26T03:56:51;101192.53;;;20.08;85.65
69751;BME280;57335;52.288;6.056;2023-06-26T03:59:17;101194.13;;;20.09;85.89
69751;BME280;57335;52.288;6.056;2023-06-26T04:01:43;101195.19;;;20.03;86.15
69751;BME280;57335;52.288;6.056;2023-06-26T04:04:10;101213.00;;;20.08;86.50
69751;BME280;57335;52.288;6.056;2023-06-26T04:06:36;101201.81;;;20.01;86.72
69751;BME280;57335;52.288;6.056;2023-06-26T04:09:03;101206.63;;;20.04;87.05
69751;BME280;57335;52.288;6.056;2023-06-26T04:11:29;101208.22;;;20.05;86.76
69751;BME280;57335;52.288;6.056;2023-06-26T04:13:55;101198.88;;;20.02;86.55
69751;BME280;57335;52.288;6.056;2023-06-26T04:16:22;101212.22;;;20.07;87.12
69751;BME280;57335;52.288;6.056;2023-06-26T04:18:48;101220.75;;;20.09;87.32
69751;BME280;57335;52.288;6.056;2023-06-26T04:21:15;101223.41;;;20.09;87.98
69751;BME280;57335;52.288;6.056;2023-06-26T04:23:41;101229.81;;;20.13;88.13
69751;BME280;57335;52.288;6.056;2023-06-26T04:26:08;101231.41;;;20.15;87.34
69751;BME280;57335;52.288;6.056;2023-06-26T04:28:35;101229.59;;;20.25;87.41
69751;BME280;57335;52.288;6.056;2023-06-26T04:31:02;101228.53;;;20.31;86.62
69751;BME280;57335;52.288;6.056;2023-06-26T04:33:29;101236.28;;;20.33;87.56
69751;BME280;57335;52.288;6.056;2023-06-26T04:35:55;101233.09;;;20.41;86.85
69751;BME280;57335;52.288;6.056;2023-06-26T04:38:22;101218.16;;;20.40;86.69
69751;BME280;57335;52.288;6.056;2023-06-26T04:40:48;101242.97;;;20.51;86.69
69751;BME280;57335;52.288;6.056;2023-06-26T04:43:15;101258.94;;;20.56;86.67
69751;BME280;57335;52.288;6.056;2023-06-26T04:45:41;101248.03;;;20.58;86.43
69751;BME280;57335;52.288;6.056;2023-06-26T04:48:08;101239.81;;;20.59;86.44
69751;BME280;57335;52.288;6.056;2023-06-26T04:50:34;101247.25;;;20.57;86.14
69751;BME280;57335;52.288;6.056;2023-06-26T04:53:01;101242.16;;;20.50;87.32
69751;BME280;57335;52.288;6.056;2023-06-26T04:55:27;101245.63;;;20.51;86.27
69751;BME280;57335;52.288;6.056;2023-06-26T04:57:54;101238.97;;;20.53;86.30
69751;BME280;57335;52.288;6.056;2023-06-26T05:00:20;101253.88;;;20.55;86.21
69751;BME280;57335;52.288;6.056;2023-06-26T05:02:47;101246.94;;;20.48;85.72
69751;BME280;57335;52.288;6.056;2023-06-26T05:05:13;101263.00;;;20.59;85.92
69751;BME280;57335;52.288;6.056;2023-06-26T05:07:41;101267.78;;;20.62;85.94
69751;BME280;57335;52.288;6.056;2023-06-26T05:10:08;101272.31;;;20.66;85.80
69751;BME280;57335;52.288;6.056;2023-06-26T05:12:34;101275.28;;;20.75;85.53
69751;BME280;57335;52.288;6.056;2023-06-26T05:15:00;101279.84;;;21.05;84.98
69751;BME280;57335;52.288;6.056;2023-06-26T05:17:27;101282.78;;;21.35;83.77
69751;BME280;57335;52.288;6.056;2023-06-26T05:19:53;101277.94;;;21.73;82.85
69751;BME280;57335;52.288;6.056;2023-06-26T05:22:20;101289.50;;;22.38;81.38
69751;BME280;57335;52.288;6.056;2023-06-26T05:24:47;101289.66;;;23.07;78.05
69751;BME280;57335;52.288;6.056;2023-06-26T05:27:13;101304.03;;;23.80;74.90
69751;BME280;57335;52.288;6.056;2023-06-26T05:29:40;101303.38;;;24.36;71.30
69751;BME280;57335;52.288;6.056;2023-06-26T05:32:07;101307.53;;;24.85;66.80
69751;BME280;57335;52.288;6.056;2023-06-26T05:34:34;101307.66;;;25.32;64.96
69751;BME280;57335;52.288;6.056;2023-06-26T05:37:01;101306.72;;;25.70;64.83
69751;BME280;57335;52.288;6.056;2023-06-26T05:39:28;101305.06;;;26.15;64.20
69751;BME280;57335;52.288;6.056;2023-06-26T05:41:54;101314.16;;;26.56;62.93
69751;BME280;57335;52.288;6.056;2023-06-26T05:44:21;101321.81;;;27.21;61.17
69751;BME280;57335;52.288;6.056;2023-06-26T05:46:47;101328.09;;;27.93;57.43
69751;BME280;57335;52.288;6.056;2023-06-26T05:49:13;101319.59;;;28.17;54.39
69751;BME280;57335;52.288;6.056;2023-06-26T05:51:41;101326.59;;;28.27;56.70
69751;BME280;57335;52.288;6.056;2023-06-26T05:54:07;101330.03;;;28.10;55.56
69751;BME280;57335;52.288;6.056;2023-06-26T05:56:34;101335.31;;;28.24;55.39
69751;BME280;57335;52.288;6.056;2023-06-26T05:59:01;101352.06;;;28.61;52.04
69751;BME280;57335;52.288;6.056;2023-06-26T06:01:28;101351.66;;;28.36;52.95
69751;BME280;57335;52.288;6.056;2023-06-26T06:03:55;101339.28;;;28.27;51.23
69751;BME280;57335;52.288;6.056;2023-06-26T06:06:21;101347.22;;;28.23;51.94
69751;BME280;57335;52.288;6.056;2023-06-26T06:08:48;101360.41;;;28.42;50.53
69751;BME280;57335;52.288;6.056;2023-06-26T06:11:15;101354.75;;;28.70;50.34
69751;BME280;57335;52.288;6.056;2023-06-26T06:13:41;101368.41;;;28.82;48.41
69751;BME280;57335;52.288;6.056;2023-06-26T06:16:07;101361.53;;;29.46;49.72
69751;BME280;57335;52.288;6.056;2023-06-26T06:18:34;101365.66;;;30.29;48.55
69751;BME280;57335;52.288;6.056;2023-06-26T06:21:00;101366.53;;;30.71;44.74
69751;BME280;57335;52.288;6.056;2023-06-26T06:23:27;101390.44;;;31.11;45.02
69751;BME280;57335;52.288;6.056;2023-06-26T06:25:53;101393.69;;;31.38;41.55
69751;BME280;57335;52.288;6.056;2023-06-26T06:28:20;101392.84;;;31.58;42.18
69751;BME280;57335;52.288;6.056;2023-06-26T06:30:46;101395.88;;;30.39;41.41
69751;BME280;57335;52.288;6.056;2023-06-26T06:33:14;101412.41;;;30.38;41.88
69751;BME280;57335;52.288;6.056;2023-06-26T06:35:40;101397.22;;;29.69;42.56
69751;BME280;57335;52.288;6.056;2023-06-26T06:38:06;101408.41;;;29.50;45.17
69751;BME280;57335;52.288;6.056;2023-06-26T06:40:33;101413.31;;;29.65;44.53
69751;BME280;57335;52.288;6.056;2023-06-26T06:42:59;101425.41;;;30.45;43.94
69751;BME280;57335;52.288;6.056;2023-06-26T06:45:26;101433.44;;;30.62;42.14
69751;BME280;57335;52.288;6.056;2023-06-26T06:47:52;101428.34;;;30.90;41.84
69751;BME280;57335;52.288;6.056;2023-06-26T06:50:18;101424.03;;;31.31;41.00
69751;BME280;57335;52.288;6.056;2023-06-26T06:52:45;101424.41;;;31.21;39.93
69751;BME280;57335;52.288;6.056;2023-06-26T06:55:11;101428.63;;;31.31;41.40
69751;BME280;57335;52.288;6.056;2023-06-26T06:57:39;101428.72;;;31.01;40.43
69751;BME280;57335;52.288;6.056;2023-06-26T07:00:10;101427.38;;;30.86;40.79
69751;BME280;57335;52.288;6.056;2023-06-26T07:02:38;101432.88;;;31.19;41.14
69751;BME280;57335;52.288;6.056;2023-06-26T07:05:05;101443.81;;;31.44;40.31
69751;BME280;57335;52.288;6.056;2023-06-26T07:07:33;101448.53;;;30.93;39.73
69751;BME280;57335;52.288;6.056;2023-06-26T07:10:03;101445.25;;;28.44;45.21
69751;BME280;57335;52.288;6.056;2023-06-26T07:12:29;101443.31;;;29.02;45.46
69751;BME280;57335;52.288;6.056;2023-06-26T07:14:56;101448.06;;;28.88;45.38
69751;BME280;57335;52.288;6.056;2023-06-26T07:17:23;101451.78;;;29.18;45.48
69751;BME280;57335;52.288;6.056;2023-06-26T07:19:50;101456.56;;;30.12;43.82
69751;BME280;57335;52.288;6.056;2023-06-26T07:22:16;101463.69;;;30.17;40.63
69751;BME280;57335;52.288;6.056;2023-06-26T07:24:42;101454.91;;;29.81;42.98
69751;BME280;57335;52.288;6.056;2023-06-26T07:27:09;101456.31;;;28.74;45.15
69751;BME280;57335;52.288;6.056;2023-06-26T07:29:35;101466.44;;;27.52;48.47
69751;BME280;57335;52.288;6.056;2023-06-26T07:32:02;101468.88;;;28.08;47.76
69751;BME280;57335;52.288;6.056;2023-06-26T07:34:28;101480.16;;;28.90;46.04
69751;BME280;57335;52.288;6.056;2023-06-26T07:36:54;101478.47;;;29.37;45.20
69751;BME280;57335;52.288;6.056;2023-06-26T07:39:21;101484.03;;;29.23;44.86
69751;BME280;57335;52.288;6.056;2023-06-26T07:41:49;101479.59;;;29.19;45.02
69751;BME280;57335;52.288;6.056;2023-06-26T07:44:15;101481.31;;;29.58;44.68
69751;BME280;57335;52.288;6.056;2023-06-26T07:46:42;101476.59;;;28.63;45.57
69751;BME280;57335;52.288;6.056;2023-06-26T07:49:08;101473.53;;;28.16;46.85
69751;BME280;57335;52.288;6.056;2023-06-26T07:51:35;101483.56;;;28.64;46.14
69751;BME280;57335;52.288;6.056;2023-06-26T07:54:01;101492.75;;;29.55;44.43
69751;BME280;57335;52.288;6.056;2023-06-26T07:56:27;101481.47;;;29.62;42.55
69751;BME280;57335;52.288;6.056;2023-06-26T07:58:54;101494.19;;;29.79;44.63
69751;BME280;57335;52.288;6.056;2023-06-26T08:01:21;101498.38;;;30.15;43.85
69751;BME280;57335;52.288;6.056;2023-06-26T08:03:47;101494.50;;;30.42;41.81
69751;BME280;57335;52.288;6.056;2023-06-26T08:06:13;101498.72;;;30.90;40.25
69751;BME280;57335;52.288;6.056;2023-06-26T08:08:40;101502.72;;;29.98;42.06
69751;BME280;57335;52.288;6.056;2023-06-26T08:11:13;101507.84;;;29.56;43.69
69751;BME280;57335;52.288;6.056;2023-06-26T08:13:39;101507.91;;;28.81;44.25
69751;BME280;57335;52.288;6.056;2023-06-26T08:16:06;101501.72;;;27.64;46.84
69751;BME280;57335;52.288;6.056;2023-06-26T08:18:32;101501.59;;;27.92;47.98
69751;BME280;57335;52.288;6.056;2023-06-26T08:20:59;101507.25;;;28.76;47.35
69751;BME280;57335;52.288;6.056;2023-06-26T08:23:25;101519.63;;;29.78;45.26
69751;BME280;57335;52.288;6.056;2023-06-26T08:25:52;101501.09;;;30.06;42.62
69751;BME280;57335;52.288;6.056;2023-06-26T08:28:18;101513.13;;;30.35;42.79
69751;BME280;57335;52.288;6.056;2023-06-26T08:30:45;101512.59;;;29.42;43.89
69751;BME280;57335;52.288;6.056;2023-06-26T08:33:11;101517.38;;;29.54;44.40
69751;BME280;57335;52.288;6.056;2023-06-26T08:35:38;101524.19;;;29.16;44.13
69751;BME280;57335;52.288;6.056;2023-06-26T08:38:04;101515.06;;;28.15;46.78
69751;BME280;57335;52.288;6.056;2023-06-26T08:40:31;101511.09;;;27.31;49.22
69751;BME280;57335;52.288;6.056;2023-06-26T08:42:58;101531.38;;;27.51;49.54
69751;BME280;57335;52.288;6.056;2023-06-26T08:45:24;101523.78;;;27.89;49.39
69751;BME280;57335;52.288;6.056;2023-06-26T08:47:53;101526.66;;;28.47;48.32
69751;BME280;57335;52.288;6.056;2023-06-26T08:50:22;101536.63;;;28.86;47.20
69751;BME280;57335;52.288;6.056;2023-06-26T08:53:04;101543.16;;;28.94;45.68
69751;BME280;57335;52.288;6.056;2023-06-26T08:55:35;101547.22;;;28.42;46.65
69751;BME280;57335;52.288;6.056;2023-06-26T08:58:02;101544.59;;;27.97;44.37
69751;BME280;57335;52.288;6.056;2023-06-26T09:00:29;101543.88;;;27.47;46.39
69751;BME280;57335;52.288;6.056;2023-06-26T09:02:56;101543.56;;;27.34;48.50
69751;BME280;57335;52.288;6.056;2023-06-26T09:05:22;101529.88;;;27.58;47.98
69751;BME280;57335;52.288;6.056;2023-06-26T09:07:49;101545.75;;;28.05;47.17
69751;BME280;57335;52.288;6.056;2023-06-26T09:10:15;101546.38;;;28.56;46.05
69751;BME280;57335;52.288;6.056;2023-06-26T09:12:46;101551.03;;;29.21;45.08
69751;BME280;57335;52.288;6.056;2023-06-26T09:15:14;101550.13;;;29.87;43.98
69751;BME280;57335;52.288;6.056;2023-06-26T09:17:41;101547.91;;;30.54;42.66
69751;BME280;57335;52.288;6.056;2023-06-26T09:20:09;101546.00;;;31.14;42.41
69751;BME280;57335;52.288;6.056;2023-06-26T09:22:41;101542.59;;;31.26;36.95
69751;BME280;57335;52.288;6.056;2023-06-26T09:25:08;101547.94;;;30.75;39.13
69751;BME280;57335;52.288;6.056;2023-06-26T09:27:35;101554.19;;;30.19;40.28
69751;BME280;57335;52.288;6.056;2023-06-26T09:30:03;101561.03;;;30.17;41.69
69751;BME280;57335;52.288;6.056;2023-06-26T09:32:30;101571.53;;;30.10;41.25
69751;BME280;57335;52.288;6.056;2023-06-26T09:34:56;101553.13;;;29.59;39.54
69751;BME280;57335;52.288;6.056;2023-06-26T09:37:23;101565.03;;;29.41;39.73
69751;BME280;57335;52.288;6.056;2023-06-26T09:39:50;101560.59;;;29.45;39.24
69751;BME280;57335;52.288;6.056;2023-06-26T09:42:17;101563.31;;;29.80;40.28
69751;BME280;57335;52.288;6.056;2023-06-26T09:44:44;101572.69;;;29.74;41.78
69751;BME280;57335;52.288;6.056;2023-06-26T09:47:11;101558.88;;;28.52;43.75
69751;BME280;57335;52.288;6.056;2023-06-26T09:49:41;101565.09;;;28.30;45.63
69751;BME280;57335;52.288;6.056;2023-06-26T09:52:08;101577.88;;;28.47;43.46
69751;BME280;57335;52.288;6.056;2023-06-26T09:54:34;101584.59;;;28.98;40.23
69751;BME280;57335;52.288;6.056;2023-06-26T09:57:11;101575.84;;;29.58;37.66
69751;BME280;57335;52.288;6.056;2023-06-26T09:59:39;101577.91;;;30.05;37.72
69751;BME280;57335;52.288;6.056;2023-06-26T10:02:06;101589.50;;;29.97;38.21
69751;BME280;57335;52.288;6.056;2023-06-26T10:04:34;101579.53;;;29.80;38.06
69751;BME280;57335;52.288;6.056;2023-06-26T10:07:02;101589.38;;;29.85;37.17
69751;BME280;57335;52.288;6.056;2023-06-26T10:09:31;101597.78;;;29.66;36.94
69751;BME280;57335;52.288;6.056;2023-06-26T10:12:02;101597.63;;;29.62;38.78
69751;BME280;57335;52.288;6.056;2023-06-26T10:14:33;101601.25;;;29.31;38.46
69751;BME280;57335;52.288;6.056;2023-06-26T10:17:03;101611.22;;;28.05;40.39
69751;BME280;57335;52.288;6.056;2023-06-26T10:19:31;101622.03;;;27.41;43.16
69751;BME280;57335;52.288;6.056;2023-06-26T10:22:00;101617.94;;;27.16;41.99
69751;BME280;57335;52.288;6.056;2023-06-26T10:24:28;101617.44;;;27.42;41.39
69751;BME280;57335;52.288;6.056;2023-06-26T10:26:59;101615.00;;;27.68;39.75
69751;BME280;57335;52.288;6.056;2023-06-26T10:29:28;101621.06;;;28.10;40.92
69751;BME280;57335;52.288;6.056;2023-06-26T10:31:58;101631.16;;;28.72;38.84
69751;BME280;57335;52.288;6.056;2023-06-26T10:34:30;101628.38;;;29.17;38.21
69751;BME280;57335;52.288;6.056;2023-06-26T10:37:00;101629.25;;;29.61;38.13
69751;BME280;57335;52.288;6.056;2023-06-26T10:39:27;101647.06;;;30.06;37.04
69751;BME280;57335;52.288;6.056;2023-06-26T10:42:08;101645.81;;;30.03;35.40
69751;BME280;57335;52.288;6.056;2023-06-26T10:44:45;101656.09;;;29.09;37.23
69751;BME280;57335;52.288;6.056;2023-06-26T10:47:28;101654.22;;;28.11;40.11
69751;BME280;57335;52.288;6.056;2023-06-26T10:49:55;101650.84;;;27.41;40.69
69751;BME280;57335;52.288;6.056;2023-06-26T10:52:38;101651.72;;;27.50;40.91
69751;BME280;57335;52.288;6.056;2023-06-26T10:55:04;101647.91;;;27.79;38.82
69751;BME280;57335;52.288;6.056;2023-06-26T10:57:35;101651.34;;;28.07;38.97
69751;BME280;57335;52.288;6.056;2023-06-26T11:00:09;101654.88;;;27.80;38.24
69751;BME280;57335;52.288;6.056;2023-06-26T11:02:52;101660.13;;;27.35;40.74
69751;BME280;57335;52.288;6.056;2023-06-26T11:05:32;101657.69;;;27.05;40.97
69751;BME280;57335;52.288;6.056;2023-06-26T11:08:03;101662.63;;;26.71;40.96
69751;BME280;57335;52.288;6.056;2023-06-26T11:10:48;101659.53;;;26.77;44.47
69751;BME280;57335;52.288;6.056;2023-06-26T11:13:17;101651.41;;;27.10;44.05
69751;BME280;57335;52.288;6.056;2023-06-26T11:15:43;101660.91;;;27.49;40.01
69751;BME280;57335;52.288;6.056;2023-06-26T11:18:10;101666.28;;;27.63;40.01
69751;BME280;57335;52.288;6.056;2023-06-26T11:20:37;101670.88;;;27.62;40.25
69751;BME280;57335;52.288;6.056;2023-06-26T11:23:04;101665.72;;;27.38;40.42
69751;BME280;57335;52.288;6.056;2023-06-26T11:25:34;101675.47;;;27.48;41.60
69751;BME280;57335;52.288;6.056;2023-06-26T11:28:03;101673.94;;;27.70;41.12
69751;BME280;57335;52.288;6.056;2023-06-26T11:30:30;101678.09;;;28.03;40.62
69751;BME280;57335;52.288;6.056;2023-06-26T11:33:08;101691.31;;;27.63;38.28
69751;BME280;57335;52.288;6.056;2023-06-26T11:35:35;101674.88;;;27.51;38.62
69751;BME280;57335;52.288;6.056;2023-06-26T11:38:03;101693.59;;;27.56;39.37
69751;BME280;57335;52.288;6.056;2023-06-26T11:40:35;101690.75;;;27.53;39.20
69751;BME280;57335;52.288;6.056;2023-06-26T11:43:02;101686.22;;;27.34;39.36
69751;BME280;57335;52.288;6.056;2023-06-26T11:45:32;101690.94;;;27.29;39.74
69751;BME280;57335;52.288;6.056;2023-06-26T11:48:00;101683.81;;;27.05;40.49
69751;BME280;57335;52.288;6.056;2023-06-26T11:50:27;101708.34;;;26.71;39.70
69751;BME280;57335;52.288;6.056;2023-06-26T11:52:57;101719.59;;;26.54;39.84
69751;BME280;57335;52.288;6.056;2023-06-26T11:55:24;101725.34;;;26.66;40.18
69751;BME280;57335;52.288;6.056;2023-06-26T11:57:55;101719.22;;;26.79;39.14
69751;BME280;57335;52.288;6.056;2023-06-26T12:00:22;101722.84;;;26.89;37.57
69751;BME280;57335;52.288;6.056;2023-06-26T12:02:49;101715.59;;;27.03;38.89
69751;BME280;57335;52.288;6.056;2023-06-26T12:05:17;101735.00;;;27.33;39.39
69751;BME280;57335;52.288;6.056;2023-06-26T12:07:46;101729.91;;;27.31;39.30
69751;BME280;57335;52.288;6.056;2023-06-26T12:10:14;101740.63;;;27.17;38.23
69751;BME280;57335;52.288;6.056;2023-06-26T12:12:41;101742.22;;;27.18;39.81
69751;BME280;57335;52.288;6.056;2023-06-26T12:15:10;101745.19;;;27.03;37.21
69751;BME280;57335;52.288;6.056;2023-06-26T12:17:38;101727.72;;;27.33;38.54
69751;BME280;57335;52.288;6.056;2023-06-26T12:20:05;101735.47;;;27.76;38.03
69751;BME280;57335;52.288;6.056;2023-06-26T12:22:34;101738.84;;;28.10;38.02
69751;BME280;57335;52.288;6.056;2023-06-26T12:25:01;101739.84;;;27.86;38.35
69751;BME280;57335;52.288;6.056;2023-06-26T12:27:27;101751.22;;;27.28;38.38
69751;BME280;57335;52.288;6.056;2023-06-26T12:29:55;101745.09;;;26.75;39.76
69751;BME280;57335;52.288;6.056;2023-06-26T12:32:23;101748.47;;;25.62;41.14
69751;BME280;57335;52.288;6.056;2023-06-26T12:34:50;101757.16;;;25.24;41.77
69751;BME280;57335;52.288;6.056;2023-06-26T12:37:17;101758.72;;;25.25;41.98
69751;BME280;57335;52.288;6.056;2023-06-26T12:39:56;101770.19;;;25.02;42.07
69751;BME280;57335;52.288;6.056;2023-06-26T12:42:26;101770.56;;;25.19;42.22
69751;BME280;57335;52.288;6.056;2023-06-26T12:44:54;101766.50;;;25.27;43.15
69751;BME280;57335;52.288;6.056;2023-06-26T12:47:24;101759.28;;;25.76;42.41
69751;BME280;57335;52.288;6.056;2023-06-26T12:49:51;101751.41;;;26.09;41.47
69751;BME280;57335;52.288;6.056;2023-06-26T12:52:19;101759.84;;;26.40;41.08